Huvudsida
METAR-TAF:

METAR-TAF

Flygplatser :

Martinique Aimé Césaires internationella flygplats

Fort-de-France, Martinique

latitud: 14-36N, longitud: 061-00W, höjd: 5 m

Aktuellt väderrapport

Denna rapport gjordes för 32 minuter sedan, klockan 07:30 UTC
Vind 2 kt varierande vindriktning
Temperatur 24°C
Fuktighet 94%
Tryck 1014 hPa
Sikt: 9000 m

METAR: TFFF 220730Z AUTO VRB02KT 9000 BKN038/// BKN060/// BKN072/// ///TCU 24/23 Q1014 TEMPO 3000 SHRA BKN018CB

Tid: 04:02 (08:02 UTC)

Väderprognos

Denna rapport gjordes för 3 timmar och 2 minuter sedan, klockan 05:00 UTC
Prognos gäller från 22 kl. 06 UTC till 23 kl. 06 UTC
Vind 8 kt från ost
Sikt 10 km eller mer
Spridda moln på en höjd av 2500 ft
Sannolikhet 40% :
Temporärt
från 22 kl. 06 UTC till 22 kl. 20 UTC
Sikt: 3000 m
Brutna moln på en höjd av 1800 ft, Cumulonimbus.
regnskurar

TAF: TFFF 220500Z 2206/2306 09008KT 9999 SCT025 PROB40 TEMPO 2206/2220 3000 SHRA BKN018CB

Aktuella väderrapporter och prognoser från 4000 flygplatser (METAR- och TAF-rapporter).

De tillgängliga stationerna syns som gula och röda prickar på kartan.

För musen över prickarna för att se namnen på stationerna.

Klicka sedan för att få väderrapporter och prognoser.

För att ändra kartan: Klicka på de gröna knapparna med ett svart kors på för att zooma in; den gröna knappen med ett streck på för att zooma ut; eller på de gröna pilarna för angränsande kartor.


METAR-TAF: